sensor_id;sensor_type;location;lat;lon;timestamp;pressure;altitude;pressure_sealevel;temperature;humidity
23953;BME280;12163;49.316;6.092;2022-07-29T00:02:12;99179.22;;;21.68;48.84
23953;BME280;12163;49.316;6.092;2022-07-29T00:04:39;99177.22;;;21.65;49.06
23953;BME280;12163;49.316;6.092;2022-07-29T00:07:05;99170.50;;;21.62;48.89
23953;BME280;12163;49.316;6.092;2022-07-29T00:09:32;99164.50;;;21.57;48.91
23953;BME280;12163;49.316;6.092;2022-07-29T00:12:16;99160.03;;;21.49;49.00
23953;BME280;12163;49.316;6.092;2022-07-29T00:14:51;99168.22;;;21.45;49.46
23953;BME280;12163;49.316;6.092;2022-07-29T00:17:18;99170.09;;;21.41;49.35
23953;BME280;12163;49.316;6.092;2022-07-29T00:19:44;99161.81;;;21.38;49.30
23953;BME280;12163;49.316;6.092;2022-07-29T00:22:10;99162.13;;;21.33;49.53
23953;BME280;12163;49.316;6.092;2022-07-29T00:24:37;99158.50;;;21.29;49.38
23953;BME280;12163;49.316;6.092;2022-07-29T00:27:03;99152.53;;;21.23;49.36
23953;BME280;12163;49.316;6.092;2022-07-29T00:29:30;99153.63;;;21.19;49.63
23953;BME280;12163;49.316;6.092;2022-07-29T00:31:59;99153.53;;;21.15;49.59
23953;BME280;12163;49.316;6.092;2022-07-29T00:34:26;99150.75;;;21.12;49.73
23953;BME280;12163;49.316;6.092;2022-07-29T00:37:11;99152.59;;;21.08;49.88
23953;BME280;12163;49.316;6.092;2022-07-29T00:39:38;99149.44;;;21.06;50.14
23953;BME280;12163;49.316;6.092;2022-07-29T00:42:04;99149.75;;;21.01;50.21
23953;BME280;12163;49.316;6.092;2022-07-29T00:44:35;99141.31;;;20.90;50.21
23953;BME280;12163;49.316;6.092;2022-07-29T00:47:02;99135.56;;;20.80;50.19
23953;BME280;12163;49.316;6.092;2022-07-29T00:49:28;99139.34;;;20.72;50.41
23953;BME280;12163;49.316;6.092;2022-07-29T00:51:55;99140.84;;;20.69;50.63
23953;BME280;12163;49.316;6.092;2022-07-29T00:54:21;99138.06;;;20.66;50.80
23953;BME280;12163;49.316;6.092;2022-07-29T00:56:48;99133.66;;;20.61;50.87
23953;BME280;12163;49.316;6.092;2022-07-29T00:59:15;99141.34;;;20.56;50.85
23953;BME280;12163;49.316;6.092;2022-07-29T01:01:41;99136.16;;;20.51;50.96
23953;BME280;12163;49.316;6.092;2022-07-29T01:04:08;99136.44;;;20.46;50.98
23953;BME280;12163;49.316;6.092;2022-07-29T01:06:34;99137.19;;;20.43;51.04
23953;BME280;12163;49.316;6.092;2022-07-29T01:09:01;99133.19;;;20.41;51.08
23953;BME280;12163;49.316;6.092;2022-07-29T01:11:28;99127.63;;;20.37;51.20
23953;BME280;12163;49.316;6.092;2022-07-29T01:13:55;99136.13;;;20.32;51.82
23953;BME280;12163;49.316;6.092;2022-07-29T01:16:27;99131.28;;;20.26;51.47
23953;BME280;12163;49.316;6.092;2022-07-29T01:18:56;99127.59;;;20.18;51.65
23953;BME280;12163;49.316;6.092;2022-07-29T01:21:46;99125.94;;;20.14;51.74
23953;BME280;12163;49.316;6.092;2022-07-29T01:26:49;99123.84;;;20.07;51.89
23953;BME280;12163;49.316;6.092;2022-07-29T01:32:08;99124.44;;;20.01;52.01
23953;BME280;12163;49.316;6.092;2022-07-29T01:39:56;99123.31;;;19.86;52.84
23953;BME280;12163;49.316;6.092;2022-07-29T01:45:36;99124.03;;;19.83;53.11
23953;BME280;12163;49.316;6.092;2022-07-29T01:48:00;99123.16;;;19.79;53.14
23953;BME280;12163;49.316;6.092;2022-07-29T01:50:33;99125.72;;;19.72;53.32
23953;BME280;12163;49.316;6.092;2022-07-29T01:53:01;99128.72;;;19.67;53.25
23953;BME280;12163;49.316;6.092;2022-07-29T01:55:29;99116.91;;;19.63;53.81
23953;BME280;12163;49.316;6.092;2022-07-29T01:57:57;99121.13;;;19.61;53.69
23953;BME280;12163;49.316;6.092;2022-07-29T02:00:25;99122.66;;;19.58;53.77
23953;BME280;12163;49.316;6.092;2022-07-29T02:02:52;99118.66;;;19.56;54.24
23953;BME280;12163;49.316;6.092;2022-07-29T02:05:21;99125.66;;;19.53;53.87
23953;BME280;12163;49.316;6.092;2022-07-29T02:07:48;99124.03;;;19.52;53.92
23953;BME280;12163;49.316;6.092;2022-07-29T02:10:16;99120.97;;;19.54;53.96
23953;BME280;12163;49.316;6.092;2022-07-29T02:12:51;99128.13;;;19.58;53.70
23953;BME280;12163;49.316;6.092;2022-07-29T02:15:18;99125.00;;;19.60;53.71
23953;BME280;12163;49.316;6.092;2022-07-29T02:17:47;99130.88;;;19.58;54.11
23953;BME280;12163;49.316;6.092;2022-07-29T02:20:15;99126.88;;;19.56;54.10
23953;BME280;12163;49.316;6.092;2022-07-29T02:22:42;99127.69;;;19.56;55.10
23953;BME280;12163;49.316;6.092;2022-07-29T02:25:10;99121.78;;;19.54;55.42
23953;BME280;12163;49.316;6.092;2022-07-29T02:27:39;99124.03;;;19.52;55.75
23953;BME280;12163;49.316;6.092;2022-07-29T02:30:07;99124.94;;;19.56;56.05
23953;BME280;12163;49.316;6.092;2022-07-29T02:32:35;99123.44;;;19.59;55.82
23953;BME280;12163;49.316;6.092;2022-07-29T02:35:08;99118.75;;;19.59;55.68
23953;BME280;12163;49.316;6.092;2022-07-29T02:37:36;99121.13;;;19.61;55.92
23953;BME280;12163;49.316;6.092;2022-07-29T02:40:04;99120.34;;;19.60;56.09
23953;BME280;12163;49.316;6.092;2022-07-29T02:42:33;99119.09;;;19.58;56.10
23953;BME280;12163;49.316;6.092;2022-07-29T02:45:00;99128.13;;;19.58;56.22
23953;BME280;12163;49.316;6.092;2022-07-29T02:47:28;99119.47;;;19.56;56.55
23953;BME280;12163;49.316;6.092;2022-07-29T02:52:54;99133.50;;;19.55;56.49
23953;BME280;12163;49.316;6.092;2022-07-29T02:55:33;99137.47;;;19.57;56.65
23953;BME280;12163;49.316;6.092;2022-07-29T02:58:15;99138.25;;;19.58;56.58
23953;BME280;12163;49.316;6.092;2022-07-29T03:00:50;99141.81;;;19.58;57.09
23953;BME280;12163;49.316;6.092;2022-07-29T03:03:18;99141.44;;;19.60;56.66
23953;BME280;12163;49.316;6.092;2022-07-29T03:05:46;99136.41;;;19.62;56.99
23953;BME280;12163;49.316;6.092;2022-07-29T03:08:14;99130.16;;;19.61;57.06
23953;BME280;12163;49.316;6.092;2022-07-29T03:10:44;99148.16;;;19.62;56.58
23953;BME280;12163;49.316;6.092;2022-07-29T03:13:12;99145.41;;;19.62;56.78
23953;BME280;12163;49.316;6.092;2022-07-29T03:15:39;99139.84;;;19.59;56.93
23953;BME280;12163;49.316;6.092;2022-07-29T03:18:08;99143.66;;;19.54;57.31
23953;BME280;12163;49.316;6.092;2022-07-29T03:20:37;99143.56;;;19.51;57.45
23953;BME280;12163;49.316;6.092;2022-07-29T03:23:04;99141.44;;;19.44;57.59
23953;BME280;12163;49.316;6.092;2022-07-29T03:25:31;99140.13;;;19.38;57.75
23953;BME280;12163;49.316;6.092;2022-07-29T03:27:57;99152.13;;;19.34;57.63
23953;BME280;12163;49.316;6.092;2022-07-29T03:30:24;99151.56;;;19.28;57.62
23953;BME280;12163;49.316;6.092;2022-07-29T03:32:51;99155.00;;;19.25;58.21
23953;BME280;12163;49.316;6.092;2022-07-29T03:35:19;99152.97;;;19.22;58.14
23953;BME280;12163;49.316;6.092;2022-07-29T03:37:46;99141.16;;;19.18;58.51
23953;BME280;12163;49.316;6.092;2022-07-29T03:40:18;99149.16;;;19.11;58.79
23953;BME280;12163;49.316;6.092;2022-07-29T03:42:46;99148.72;;;19.09;58.80
23953;BME280;12163;49.316;6.092;2022-07-29T03:45:17;99150.53;;;19.05;58.54
23953;BME280;12163;49.316;6.092;2022-07-29T03:47:48;99152.38;;;19.01;58.74
23953;BME280;12163;49.316;6.092;2022-07-29T03:50:22;99156.97;;;18.97;58.69
23953;BME280;12163;49.316;6.092;2022-07-29T03:52:49;99160.75;;;18.93;59.34
23953;BME280;12163;49.316;6.092;2022-07-29T03:55:16;99151.66;;;18.89;59.26
23953;BME280;12163;49.316;6.092;2022-07-29T03:57:44;99158.97;;;18.85;59.48
23953;BME280;12163;49.316;6.092;2022-07-29T04:00:11;99154.19;;;18.82;59.71
23953;BME280;12163;49.316;6.092;2022-07-29T04:02:38;99150.91;;;18.76;60.04
23953;BME280;12163;49.316;6.092;2022-07-29T04:05:12;99153.91;;;18.72;59.43
23953;BME280;12163;49.316;6.092;2022-07-29T04:07:39;99161.66;;;18.70;59.59
23953;BME280;12163;49.316;6.092;2022-07-29T04:10:06;99166.22;;;18.66;60.46
23953;BME280;12163;49.316;6.092;2022-07-29T04:12:34;99166.88;;;18.63;59.90
23953;BME280;12163;49.316;6.092;2022-07-29T04:15:03;99163.72;;;18.61;60.46
23953;BME280;12163;49.316;6.092;2022-07-29T04:17:30;99175.34;;;18.58;60.10
23953;BME280;12163;49.316;6.092;2022-07-29T04:19:56;99174.56;;;18.57;60.25
23953;BME280;12163;49.316;6.092;2022-07-29T04:22:23;99171.03;;;18.57;60.73
23953;BME280;12163;49.316;6.092;2022-07-29T04:24:51;99176.84;;;18.55;59.95
23953;BME280;12163;49.316;6.092;2022-07-29T04:27:18;99179.22;;;18.57;60.47
23953;BME280;12163;49.316;6.092;2022-07-29T04:29:46;99182.69;;;18.81;60.16
23953;BME280;12163;49.316;6.092;2022-07-29T04:32:22;99184.41;;;18.73;60.36
23953;BME280;12163;49.316;6.092;2022-07-29T04:34:49;99186.00;;;18.74;59.90
23953;BME280;12163;49.316;6.092;2022-07-29T04:37:15;99182.03;;;18.99;59.63
23953;BME280;12163;49.316;6.092;2022-07-29T04:39:42;99182.16;;;18.91;59.50
23953;BME280;12163;49.316;6.092;2022-07-29T04:42:08;99178.44;;;18.83;59.03
23953;BME280;12163;49.316;6.092;2022-07-29T04:44:35;99192.47;;;18.82;58.88
23953;BME280;12163;49.316;6.092;2022-07-29T04:47:07;99190.06;;;18.80;59.17
23953;BME280;12163;49.316;6.092;2022-07-29T04:49:34;99185.03;;;18.82;58.94
23953;BME280;12163;49.316;6.092;2022-07-29T04:52:00;99190.69;;;19.29;59.47
23953;BME280;12163;49.316;6.092;2022-07-29T04:54:27;99186.66;;;19.85;58.05
23953;BME280;12163;49.316;6.092;2022-07-29T04:56:53;99190.78;;;20.25;56.59
23953;BME280;12163;49.316;6.092;2022-07-29T04:59:20;99191.41;;;20.53;55.68
23953;BME280;12163;49.316;6.092;2022-07-29T05:01:46;99192.75;;;20.78;54.77
23953;BME280;12163;49.316;6.092;2022-07-29T05:04:13;99186.84;;;20.95;54.44
23953;BME280;12163;49.316;6.092;2022-07-29T05:06:40;99191.91;;;21.12;53.63
23953;BME280;12163;49.316;6.092;2022-07-29T05:09:06;99192.16;;;21.26;53.37
23953;BME280;12163;49.316;6.092;2022-07-29T05:11:32;99191.94;;;21.34;52.82
23953;BME280;12163;49.316;6.092;2022-07-29T05:13:59;99194.13;;;21.48;52.46
23953;BME280;12163;49.316;6.092;2022-07-29T05:16:26;99199.25;;;21.68;52.04
23953;BME280;12163;49.316;6.092;2022-07-29T05:18:53;99199.56;;;21.86;51.39
23953;BME280;12163;49.316;6.092;2022-07-29T05:21:20;99201.13;;;21.87;51.36
23953;BME280;12163;49.316;6.092;2022-07-29T05:23:46;99196.09;;;21.66;51.13
23953;BME280;12163;49.316;6.092;2022-07-29T05:26:13;99203.31;;;21.55;51.34
23953;BME280;12163;49.316;6.092;2022-07-29T05:28:39;99201.41;;;21.59;51.59
23953;BME280;12163;49.316;6.092;2022-07-29T05:31:06;99197.72;;;21.71;51.23
23953;BME280;12163;49.316;6.092;2022-07-29T05:33:32;99206.13;;;21.81;51.25
23953;BME280;12163;49.316;6.092;2022-07-29T05:36:01;99199.25;;;21.91;51.28
23953;BME280;12163;49.316;6.092;2022-07-29T05:38:28;99206.88;;;22.01;51.05
23953;BME280;12163;49.316;6.092;2022-07-29T05:40:56;99200.06;;;22.17;50.75
23953;BME280;12163;49.316;6.092;2022-07-29T05:43:22;99202.66;;;22.32;50.51
23953;BME280;12163;49.316;6.092;2022-07-29T05:45:49;99201.31;;;22.45;50.04
23953;BME280;12163;49.316;6.092;2022-07-29T05:48:15;99191.91;;;22.46;49.52
23953;BME280;12163;49.316;6.092;2022-07-29T05:50:42;99197.75;;;22.45;49.12
23953;BME280;12163;49.316;6.092;2022-07-29T05:53:09;99190.81;;;22.54;48.91
23953;BME280;12163;49.316;6.092;2022-07-29T05:55:46;99197.28;;;22.65;48.75
23953;BME280;12163;49.316;6.092;2022-07-29T05:58:12;99205.63;;;22.72;48.47
23953;BME280;12163;49.316;6.092;2022-07-29T06:00:39;99204.13;;;22.78;47.89
23953;BME280;12163;49.316;6.092;2022-07-29T06:03:06;99206.53;;;22.83;47.55
23953;BME280;12163;49.316;6.092;2022-07-29T06:05:32;99205.94;;;22.67;46.88
23953;BME280;12163;49.316;6.092;2022-07-29T06:07:59;99213.78;;;22.39;47.19
23953;BME280;12163;49.316;6.092;2022-07-29T06:10:25;99215.91;;;22.27;47.06
23953;BME280;12163;49.316;6.092;2022-07-29T06:12:53;99224.56;;;22.26;47.24
23953;BME280;12163;49.316;6.092;2022-07-29T06:15:19;99221.66;;;22.19;46.79
23953;BME280;12163;49.316;6.092;2022-07-29T06:17:46;99221.06;;;22.06;47.42
23953;BME280;12163;49.316;6.092;2022-07-29T06:20:26;99212.66;;;22.18;47.35
23953;BME280;12163;49.316;6.092;2022-07-29T06:22:56;99226.28;;;22.37;47.11
23953;BME280;12163;49.316;6.092;2022-07-29T06:25:23;99217.84;;;22.49;45.70
23953;BME280;12163;49.316;6.092;2022-07-29T06:27:49;99215.16;;;22.52;46.09
23953;BME280;12163;49.316;6.092;2022-07-29T06:30:16;99219.41;;;22.46;45.41
23953;BME280;12163;49.316;6.092;2022-07-29T06:32:42;99219.56;;;22.34;45.60
23953;BME280;12163;49.316;6.092;2022-07-29T06:35:09;99212.25;;;22.20;45.92
23953;BME280;12163;49.316;6.092;2022-07-29T06:37:55;99217.97;;;22.08;46.55
23953;BME280;12163;49.316;6.092;2022-07-29T06:40:25;99213.03;;;21.94;46.35
23953;BME280;12163;49.316;6.092;2022-07-29T06:43:10;99204.97;;;21.82;46.88
23953;BME280;12163;49.316;6.092;2022-07-29T06:45:37;99217.69;;;21.68;46.92
23953;BME280;12163;49.316;6.092;2022-07-29T06:48:07;99224.34;;;21.67;47.34
23953;BME280;12163;49.316;6.092;2022-07-29T06:50:33;99217.31;;;21.69;47.30
23953;BME280;12163;49.316;6.092;2022-07-29T06:53:00;99221.69;;;21.74;47.29
23953;BME280;12163;49.316;6.092;2022-07-29T06:55:26;99223.84;;;21.84;47.32
23953;BME280;12163;49.316;6.092;2022-07-29T06:57:53;99222.50;;;21.97;46.73
23953;BME280;12163;49.316;6.092;2022-07-29T07:00:19;99229.28;;;22.03;46.03
23953;BME280;12163;49.316;6.092;2022-07-29T07:02:46;99219.75;;;21.97;46.16
23953;BME280;12163;49.316;6.092;2022-07-29T07:05:13;99225.06;;;22.09;46.86
23953;BME280;12163;49.316;6.092;2022-07-29T07:07:39;99227.78;;;22.31;45.76
23953;BME280;12163;49.316;6.092;2022-07-29T07:10:06;99222.63;;;22.29;45.87
23953;BME280;12163;49.316;6.092;2022-07-29T07:12:32;99235.66;;;22.32;45.24
23953;BME280;12163;49.316;6.092;2022-07-29T07:14:59;99226.38;;;22.40;45.51
23953;BME280;12163;49.316;6.092;2022-07-29T07:17:25;99234.31;;;22.45;44.83
23953;BME280;12163;49.316;6.092;2022-07-29T07:19:52;99236.34;;;22.52;45.16
23953;BME280;12163;49.316;6.092;2022-07-29T07:22:18;99233.66;;;22.55;44.52
23953;BME280;12163;49.316;6.092;2022-07-29T07:24:45;99243.91;;;22.58;45.00
23953;BME280;12163;49.316;6.092;2022-07-29T07:27:11;99242.88;;;22.66;45.11
23953;BME280;12163;49.316;6.092;2022-07-29T07:29:38;99245.72;;;22.73;44.50
23953;BME280;12163;49.316;6.092;2022-07-29T07:32:09;99248.88;;;22.75;45.38
23953;BME280;12163;49.316;6.092;2022-07-29T07:34:36;99249.16;;;22.96;45.06
23953;BME280;12163;49.316;6.092;2022-07-29T07:37:04;99250.09;;;23.07;44.18
23953;BME280;12163;49.316;6.092;2022-07-29T07:39:30;99245.91;;;23.17;44.07
23953;BME280;12163;49.316;6.092;2022-07-29T07:41:57;99243.28;;;23.27;43.83
23953;BME280;12163;49.316;6.092;2022-07-29T07:44:24;99250.91;;;23.41;43.50
23953;BME280;12163;49.316;6.092;2022-07-29T07:46:50;99244.34;;;23.52;43.21
23953;BME280;12163;49.316;6.092;2022-07-29T07:49:17;99247.44;;;23.44;42.80
23953;BME280;12163;49.316;6.092;2022-07-29T07:51:45;99251.97;;;23.29;42.84
23953;BME280;12163;49.316;6.092;2022-07-29T07:54:16;99256.50;;;23.15;42.88
23953;BME280;12163;49.316;6.092;2022-07-29T07:56:43;99257.94;;;23.05;43.51
23953;BME280;12163;49.316;6.092;2022-07-29T07:59:10;99257.09;;;23.01;43.70
23953;BME280;12163;49.316;6.092;2022-07-29T08:01:36;99258.78;;;23.09;43.81
23953;BME280;12163;49.316;6.092;2022-07-29T08:04:21;99256.56;;;23.18;43.70
23953;BME280;12163;49.316;6.092;2022-07-29T08:06:54;99273.25;;;23.32;43.74
23953;BME280;12163;49.316;6.092;2022-07-29T08:09:20;99262.31;;;23.39;43.66
23953;BME280;12163;49.316;6.092;2022-07-29T08:11:54;99256.94;;;23.50;43.11
23953;BME280;12163;49.316;6.092;2022-07-29T08:14:21;99268.41;;;23.55;42.93
23953;BME280;12163;49.316;6.092;2022-07-29T08:16:47;99263.31;;;23.57;43.12
23953;BME280;12163;49.316;6.092;2022-07-29T08:19:14;99264.91;;;23.58;43.30
23953;BME280;12163;49.316;6.092;2022-07-29T08:21:41;99260.22;;;23.62;43.26
23953;BME280;12163;49.316;6.092;2022-07-29T08:24:07;99251.66;;;23.71;43.71
23953;BME280;12163;49.316;6.092;2022-07-29T08:26:52;99254.88;;;23.76;43.11
23953;BME280;12163;49.316;6.092;2022-07-29T08:29:19;99242.16;;;23.68;43.08
23953;BME280;12163;49.316;6.092;2022-07-29T08:31:45;99249.97;;;23.63;43.37
23953;BME280;12163;49.316;6.092;2022-07-29T08:34:12;99245.63;;;23.58;43.72
23953;BME280;12163;49.316;6.092;2022-07-29T08:36:38;99253.13;;;23.61;43.66
23953;BME280;12163;49.316;6.092;2022-07-29T08:39:05;99239.75;;;23.63;43.85
23953;BME280;12163;49.316;6.092;2022-07-29T08:41:31;99248.44;;;23.65;43.57
23953;BME280;12163;49.316;6.092;2022-07-29T08:43:58;99262.56;;;23.60;43.55
23953;BME280;12163;49.316;6.092;2022-07-29T08:46:24;99263.69;;;23.56;43.43
23953;BME280;12163;49.316;6.092;2022-07-29T08:48:51;99253.13;;;23.61;43.56
23953;BME280;12163;49.316;6.092;2022-07-29T08:51:18;99250.13;;;23.77;43.00
23953;BME280;12163;49.316;6.092;2022-07-29T08:53:46;99251.75;;;23.81;42.78
23953;BME280;12163;49.316;6.092;2022-07-29T08:56:16;99247.50;;;23.87;42.98
23953;BME280;12163;49.316;6.092;2022-07-29T08:58:43;99246.88;;;24.04;42.66
23953;BME280;12163;49.316;6.092;2022-07-29T09:01:17;99250.19;;;24.23;42.19
23953;BME280;12163;49.316;6.092;2022-07-29T09:03:47;99240.03;;;24.34;42.01
23953;BME280;12163;49.316;6.092;2022-07-29T09:06:16;99239.38;;;24.51;41.15
23953;BME280;12163;49.316;6.092;2022-07-29T09:08:44;99246.59;;;24.73;40.91
23953;BME280;12163;49.316;6.092;2022-07-29T09:11:11;99237.22;;;24.85;40.98
23953;BME280;12163;49.316;6.092;2022-07-29T09:13:37;99241.63;;;25.00;40.66
23953;BME280;12163;49.316;6.092;2022-07-29T09:16:04;99241.66;;;25.03;40.45
23953;BME280;12163;49.316;6.092;2022-07-29T09:21:04;99238.16;;;25.17;40.01
23953;BME280;12163;49.316;6.092;2022-07-29T09:26:45;99230.75;;;25.38;39.37
23953;BME280;12163;49.316;6.092;2022-07-29T09:29:13;99243.41;;;25.50;38.80
23953;BME280;12163;49.316;6.092;2022-07-29T09:31:41;99243.44;;;25.60;38.30
23953;BME280;12163;49.316;6.092;2022-07-29T09:34:08;99242.69;;;25.67;38.36
23953;BME280;12163;49.316;6.092;2022-07-29T09:36:38;99243.50;;;25.81;38.11
23953;BME280;12163;49.316;6.092;2022-07-29T09:39:05;99237.22;;;26.08;38.35
23953;BME280;12163;49.316;6.092;2022-07-29T09:41:48;99252.66;;;26.34;37.39
23953;BME280;12163;49.316;6.092;2022-07-29T09:44:15;99239.97;;;26.40;36.88
23953;BME280;12163;49.316;6.092;2022-07-29T09:47:03;99245.13;;;26.52;36.32
23953;BME280;12163;49.316;6.092;2022-07-29T09:49:33;99253.84;;;26.64;36.57
23953;BME280;12163;49.316;6.092;2022-07-29T09:54:32;99250.25;;;26.78;36.43
23953;BME280;12163;49.316;6.092;2022-07-29T09:57:05;99246.25;;;26.89;36.38
23953;BME280;12163;49.316;6.092;2022-07-29T09:59:32;99242.69;;;26.92;36.25
23953;BME280;12163;49.316;6.092;2022-07-29T10:01:59;99242.69;;;26.89;36.26
23953;BME280;12163;49.316;6.092;2022-07-29T10:04:39;99244.69;;;26.88;36.24
23953;BME280;12163;49.316;6.092;2022-07-29T10:07:06;99247.44;;;26.88;36.38
23953;BME280;12163;49.316;6.092;2022-07-29T10:09:33;99246.22;;;27.00;36.43
23953;BME280;12163;49.316;6.092;2022-07-29T10:12:09;99241.47;;;26.97;36.24
23953;BME280;12163;49.316;6.092;2022-07-29T10:14:37;99245.81;;;27.01;36.08
23953;BME280;12163;49.316;6.092;2022-07-29T10:17:05;99243.44;;;27.00;36.06
23953;BME280;12163;49.316;6.092;2022-07-29T10:19:32;99246.63;;;26.91;36.23
23953;BME280;12163;49.316;6.092;2022-07-29T10:22:00;99249.78;;;26.93;36.12
23953;BME280;12163;49.316;6.092;2022-07-29T10:24:29;99248.19;;;26.99;36.16
23953;BME280;12163;49.316;6.092;2022-07-29T10:26:57;99239.50;;;26.97;35.89
23953;BME280;12163;49.316;6.092;2022-07-29T10:29:24;99251.38;;;26.94;36.35
23953;BME280;12163;49.316;6.092;2022-07-29T10:34:23;99255.34;;;26.90;36.55
23953;BME280;12163;49.316;6.092;2022-07-29T10:44:45;99237.09;;;26.99;36.11
23953;BME280;12163;49.316;6.092;2022-07-29T10:49:55;99245.84;;;26.98;35.76
23953;BME280;12163;49.316;6.092;2022-07-29T10:52:21;99245.06;;;26.90;35.96
23953;BME280;12163;49.316;6.092;2022-07-29T10:54:55;99253.75;;;26.89;36.21
23953;BME280;12163;49.316;6.092;2022-07-29T10:57:25;99247.03;;;26.93;36.34
23953;BME280;12163;49.316;6.092;2022-07-29T11:03:00;99253.69;;;27.06;35.56
23953;BME280;12163;49.316;6.092;2022-07-29T11:05:52;99264.38;;;27.15;35.40
23953;BME280;12163;49.316;6.092;2022-07-29T11:08:20;99262.75;;;27.31;35.36
23953;BME280;12163;49.316;6.092;2022-07-29T11:11:15;99250.00;;;27.48;34.83
23953;BME280;12163;49.316;6.092;2022-07-29T11:13:59;99243.59;;;27.61;34.86
23953;BME280;12163;49.316;6.092;2022-07-29T11:16:25;99235.97;;;27.79;34.67
23953;BME280;12163;49.316;6.092;2022-07-29T11:21:40;99238.84;;;28.16;34.04
23953;BME280;12163;49.316;6.092;2022-07-29T11:24:25;99233.22;;;28.30;33.23
23953;BME280;12163;49.316;6.092;2022-07-29T11:29:35;99229.94;;;28.42;33.40
23953;BME280;12163;49.316;6.092;2022-07-29T11:32:12;99231.75;;;28.59;32.50
23953;BME280;12163;49.316;6.092;2022-07-29T11:34:43;99239.59;;;28.67;32.46
23953;BME280;12163;49.316;6.092;2022-07-29T11:39:44;99220.03;;;28.78;32.14
23953;BME280;12163;49.316;6.092;2022-07-29T11:44:59;99221.16;;;28.84;32.29
23953;BME280;12163;49.316;6.092;2022-07-29T11:50:29;99212.81;;;28.84;32.33
23953;BME280;12163;49.316;6.092;2022-07-29T11:52:58;99213.66;;;28.81;32.25
23953;BME280;12163;49.316;6.092;2022-07-29T11:55:25;99222.25;;;28.97;32.10
23953;BME280;12163;49.316;6.092;2022-07-29T11:57:59;99218.84;;;29.16;31.78
23953;BME280;12163;49.316;6.092;2022-07-29T12:00:46;99214.13;;;29.13;31.88
23953;BME280;12163;49.316;6.092;2022-07-29T12:03:22;99209.47;;;29.03;31.51
23953;BME280;12163;49.316;6.092;2022-07-29T12:06:12;99219.09;;;28.95;31.75
23953;BME280;12163;49.316;6.092;2022-07-29T12:08:41;99204.88;;;28.86;31.63
23953;BME280;12163;49.316;6.092;2022-07-29T12:11:16;99216.06;;;28.79;31.70
23953;BME280;12163;49.316;6.092;2022-07-29T12:13:46;99216.28;;;28.58;32.17
23953;BME280;12163;49.316;6.092;2022-07-29T12:16:14;99208.50;;;28.42;32.55
23953;BME280;12163;49.316;6.092;2022-07-29T12:18:57;99213.66;;;28.44;32.31
23953;BME280;12163;49.316;6.092;2022-07-29T12:21:24;99205.50;;;28.67;32.47
23953;BME280;12163;49.316;6.092;2022-07-29T12:23:54;99205.31;;;28.81;31.54
23953;BME280;12163;49.316;6.092;2022-07-29T12:26:27;99207.25;;;28.91;31.56
23953;BME280;12163;49.316;6.092;2022-07-29T12:28:53;99206.22;;;29.08;31.85
23953;BME280;12163;49.316;6.092;2022-07-29T12:31:21;99207.50;;;29.30;31.29
23953;BME280;12163;49.316;6.092;2022-07-29T12:34:08;99206.72;;;29.33;31.39
23953;BME280;12163;49.316;6.092;2022-07-29T12:36:35;99209.75;;;29.42;30.72
23953;BME280;12163;49.316;6.092;2022-07-29T12:39:02;99206.97;;;29.42;31.01
23953;BME280;12163;49.316;6.092;2022-07-29T12:41:28;99211.47;;;29.32;31.17
23953;BME280;12163;49.316;6.092;2022-07-29T12:43:55;99206.78;;;29.26;31.28
23953;BME280;12163;49.316;6.092;2022-07-29T12:46:22;99213.84;;;29.34;30.61
23953;BME280;12163;49.316;6.092;2022-07-29T12:48:52;99206.53;;;29.47;30.45
23953;BME280;12163;49.316;6.092;2022-07-29T12:51:33;99202.34;;;29.62;30.12
23953;BME280;12163;49.316;6.092;2022-07-29T12:56:29;99205.56;;;29.83;29.99
23953;BME280;12163;49.316;6.092;2022-07-29T12:59:18;99201.91;;;29.89;29.27
23953;BME280;12163;49.316;6.092;2022-07-29T13:01:46;99221.38;;;29.89;28.80
23953;BME280;12163;49.316;6.092;2022-07-29T13:04:31;99217.19;;;30.04;29.00
23953;BME280;12163;49.316;6.092;2022-07-29T13:06:58;99197.00;;;30.23;29.13
23953;BME280;12163;49.316;6.092;2022-07-29T13:09:35;99201.94;;;30.35;28.67
23953;BME280;12163;49.316;6.092;2022-07-29T13:12:02;99193.50;;;30.19;28.65
23953;BME280;12163;49.316;6.092;2022-07-29T13:14:36;99204.09;;;30.01;28.09
23953;BME280;12163;49.316;6.092;2022-07-29T13:17:16;99207.44;;;29.66;28.31
23953;BME280;12163;49.316;6.092;2022-07-29T13:19:44;99209.44;;;29.66;28.79
23953;BME280;12163;49.316;6.092;2022-07-29T13:22:18;99203.72;;;29.76;28.54
23953;BME280;12163;49.316;6.092;2022-07-29T13:24:46;99219.41;;;29.63;28.59
23953;BME280;12163;49.316;6.092;2022-07-29T13:27:13;99222.06;;;29.41;28.64
23953;BME280;12163;49.316;6.092;2022-07-29T13:29:40;99224.72;;;29.21;29.60
23953;BME280;12163;49.316;6.092;2022-07-29T13:32:06;99223.09;;;29.24;30.03
23953;BME280;12163;49.316;6.092;2022-07-29T13:34:33;99218.19;;;29.35;29.73
23953;BME280;12163;49.316;6.092;2022-07-29T13:36:59;99212.16;;;29.40;29.79
23953;BME280;12163;49.316;6.092;2022-07-29T13:39:26;99219.72;;;29.69;29.25
23953;BME280;12163;49.316;6.092;2022-07-29T13:41:52;99214.28;;;30.11;28.69
23953;BME280;12163;49.316;6.092;2022-07-29T13:44:21;99200.97;;;30.45;28.31
23953;BME280;12163;49.316;6.092;2022-07-29T13:46:47;99195.34;;;30.91;28.22
23953;BME280;12163;49.316;6.092;2022-07-29T13:49:14;99209.13;;;31.18;26.67
23953;BME280;12163;49.316;6.092;2022-07-29T13:51:41;99209.63;;;30.93;26.77
23953;BME280;12163;49.316;6.092;2022-07-29T13:54:07;99203.31;;;30.47;27.67
23953;BME280;12163;49.316;6.092;2022-07-29T13:56:34;99205.22;;;30.30;27.55
23953;BME280;12163;49.316;6.092;2022-07-29T13:59:00;99200.88;;;30.29;27.69
23953;BME280;12163;49.316;6.092;2022-07-29T14:01:27;99204.22;;;30.40;27.50
23953;BME280;12163;49.316;6.092;2022-07-29T14:03:54;99202.25;;;30.64;27.62
23953;BME280;12163;49.316;6.092;2022-07-29T14:06:21;99207.47;;;30.81;27.70
23953;BME280;12163;49.316;6.092;2022-07-29T14:08:47;99196.63;;;30.67;26.96